CPX305 Details

Departure: Seattle-Tacoma International Airport (KSEA)
Arrival: Chicago/Rockford International Airport (KRFD)
Route: NORMY J12 EPH HLN DPR J16 FSD DBQ


Current Weather Information
KSEA 190653Z 09015G23KT 10SM CLR 17/M06 A3009 RMK AO2 PK WND 08027/0609 SLP193 T01721056
KRFD 190654Z 00000KT 10SM BKN180 M02/M05 A3039 RMK AO2 SLP297 T10221050